sensor_id;sensor_type;location;lat;lon;timestamp;P1;P2;P0
60816;PMS5003;51921;51.518;-3.188;2022-08-19T00:01:33;4;4;
60816;PMS5003;51921;51.518;-3.188;2022-08-19T00:03:59;1;1;
60816;PMS5003;51921;51.518;-3.188;2022-08-19T00:06:24;0;0;
60816;PMS5003;51921;51.518;-3.188;2022-08-19T00:08:49;3;2;
60816;PMS5003;51921;51.518;-3.188;2022-08-19T00:11:14;0;0;
60816;PMS5003;51921;51.518;-3.188;2022-08-19T00:13:40;2;1;
60816;PMS5003;51921;51.518;-3.188;2022-08-19T00:16:06;1;1;
60816;PMS5003;51921;51.518;-3.188;2022-08-19T00:18:31;1;1;
60816;PMS5003;51921;51.518;-3.188;2022-08-19T00:20:56;2;1;
60816;PMS5003;51921;51.518;-3.188;2022-08-19T00:23:21;0;0;
60816;PMS5003;51921;51.518;-3.188;2022-08-19T00:25:47;0;0;
60816;PMS5003;51921;51.518;-3.188;2022-08-19T00:28:12;1;1;
60816;PMS5003;51921;51.518;-3.188;2022-08-19T00:30:38;1;1;
60816;PMS5003;51921;51.518;-3.188;2022-08-19T00:33:03;1;1;
60816;PMS5003;51921;51.518;-3.188;2022-08-19T00:35:28;1;1;
60816;PMS5003;51921;51.518;-3.188;2022-08-19T00:37:54;0;0;
60816;PMS5003;51921;51.518;-3.188;2022-08-19T00:40:19;2;1;
60816;PMS5003;51921;51.518;-3.188;2022-08-19T00:42:45;1;1;
60816;PMS5003;51921;51.518;-3.188;2022-08-19T00:45:11;1;1;
60816;PMS5003;51921;51.518;-3.188;2022-08-19T00:47:35;2;1;
60816;PMS5003;51921;51.518;-3.188;2022-08-19T00:50:01;3;3;
60816;PMS5003;51921;51.518;-3.188;2022-08-19T00:52:27;4;3;
60816;PMS5003;51921;51.518;-3.188;2022-08-19T00:54:51;4;3;
60816;PMS5003;51921;51.518;-3.188;2022-08-19T00:57:18;1;1;
60816;PMS5003;51921;51.518;-3.188;2022-08-19T00:59:43;3;3;
60816;PMS5003;51921;51.518;-3.188;2022-08-19T01:02:08;3;3;
60816;PMS5003;51921;51.518;-3.188;2022-08-19T01:04:33;3;3;
60816;PMS5003;51921;51.518;-3.188;2022-08-19T01:06:58;5;4;
60816;PMS5003;51921;51.518;-3.188;2022-08-19T01:09:23;5;5;
60816;PMS5003;51921;51.518;-3.188;2022-08-19T01:11:49;5;3;
60816;PMS5003;51921;51.518;-3.188;2022-08-19T01:14:14;5;3;
60816;PMS5003;51921;51.518;-3.188;2022-08-19T01:16:40;5;5;
60816;PMS5003;51921;51.518;-3.188;2022-08-19T01:19:08;7;7;
60816;PMS5003;51921;51.518;-3.188;2022-08-19T01:21:31;5;5;
60816;PMS5003;51921;51.518;-3.188;2022-08-19T01:23:56;6;5;
60816;PMS5003;51921;51.518;-3.188;2022-08-19T01:26:22;5;5;
60816;PMS5003;51921;51.518;-3.188;2022-08-19T01:28:47;5;5;
60816;PMS5003;51921;51.518;-3.188;2022-08-19T01:31:13;4;4;
60816;PMS5003;51921;51.518;-3.188;2022-08-19T01:33:37;4;4;
60816;PMS5003;51921;51.518;-3.188;2022-08-19T01:36:04;6;6;
60816;PMS5003;51921;51.518;-3.188;2022-08-19T01:38:28;6;5;
60816;PMS5003;51921;51.518;-3.188;2022-08-19T01:40:53;7;6;
60816;PMS5003;51921;51.518;-3.188;2022-08-19T01:43:19;6;5;
60816;PMS5003;51921;51.518;-3.188;2022-08-19T01:45:44;6;5;
60816;PMS5003;51921;51.518;-3.188;2022-08-19T01:48:11;6;6;
60816;PMS5003;51921;51.518;-3.188;2022-08-19T01:50:35;7;6;
60816;PMS5003;51921;51.518;-3.188;2022-08-19T01:53:01;8;7;
60816;PMS5003;51921;51.518;-3.188;2022-08-19T01:55:26;7;7;
60816;PMS5003;51921;51.518;-3.188;2022-08-19T01:57:53;8;8;
60816;PMS5003;51921;51.518;-3.188;2022-08-19T02:00:18;7;7;
60816;PMS5003;51921;51.518;-3.188;2022-08-19T02:02:42;7;7;
60816;PMS5003;51921;51.518;-3.188;2022-08-19T02:05:08;8;8;
60816;PMS5003;51921;51.518;-3.188;2022-08-19T02:07:33;7;7;
60816;PMS5003;51921;51.518;-3.188;2022-08-19T02:09:58;8;7;
60816;PMS5003;51921;51.518;-3.188;2022-08-19T02:12:24;9;7;
60816;PMS5003;51921;51.518;-3.188;2022-08-19T02:14:49;8;6;
60816;PMS5003;51921;51.518;-3.188;2022-08-19T02:17:15;8;5;
60816;PMS5003;51921;51.518;-3.188;2022-08-19T02:19:40;8;7;
60816;PMS5003;51921;51.518;-3.188;2022-08-19T02:22:05;8;7;
60816;PMS5003;51921;51.518;-3.188;2022-08-19T02:24:31;4;4;
60816;PMS5003;51921;51.518;-3.188;2022-08-19T02:26:56;6;5;
60816;PMS5003;51921;51.518;-3.188;2022-08-19T02:29:22;9;9;
60816;PMS5003;51921;51.518;-3.188;2022-08-19T02:31:47;5;5;
60816;PMS5003;51921;51.518;-3.188;2022-08-19T02:34:12;5;4;
60816;PMS5003;51921;51.518;-3.188;2022-08-19T02:36:38;7;7;
60816;PMS5003;51921;51.518;-3.188;2022-08-19T02:39:03;8;5;
60816;PMS5003;51921;51.518;-3.188;2022-08-19T02:41:30;6;6;
60816;PMS5003;51921;51.518;-3.188;2022-08-19T02:43:54;9;6;
60816;PMS5003;51921;51.518;-3.188;2022-08-19T02:46:20;8;8;
60816;PMS5003;51921;51.518;-3.188;2022-08-19T02:48:45;5;5;
60816;PMS5003;51921;51.518;-3.188;2022-08-19T02:51:15;6;5;
60816;PMS5003;51921;51.518;-3.188;2022-08-19T02:53:35;4;4;
60816;PMS5003;51921;51.518;-3.188;2022-08-19T02:56:01;9;9;
60816;PMS5003;51921;51.518;-3.188;2022-08-19T02:58:27;7;5;
60816;PMS5003;51921;51.518;-3.188;2022-08-19T03:00:53;8;7;
60816;PMS5003;51921;51.518;-3.188;2022-08-19T03:03:18;8;7;
60816;PMS5003;51921;51.518;-3.188;2022-08-19T03:05:43;4;4;
60816;PMS5003;51921;51.518;-3.188;2022-08-19T03:08:08;7;7;
60816;PMS5003;51921;51.518;-3.188;2022-08-19T03:10:33;5;5;
60816;PMS5003;51921;51.518;-3.188;2022-08-19T03:12:59;6;5;
60816;PMS5003;51921;51.518;-3.188;2022-08-19T03:15:24;7;5;
60816;PMS5003;51921;51.518;-3.188;2022-08-19T03:17:49;4;4;
60816;PMS5003;51921;51.518;-3.188;2022-08-19T03:20:15;6;6;
60816;PMS5003;51921;51.518;-3.188;2022-08-19T03:22:40;5;4;
60816;PMS5003;51921;51.518;-3.188;2022-08-19T03:25:06;3;3;
60816;PMS5003;51921;51.518;-3.188;2022-08-19T03:27:31;6;5;
60816;PMS5003;51921;51.518;-3.188;2022-08-19T03:29:56;7;6;
60816;PMS5003;51921;51.518;-3.188;2022-08-19T03:32:22;6;5;
60816;PMS5003;51921;51.518;-3.188;2022-08-19T03:34:47;4;4;
60816;PMS5003;51921;51.518;-3.188;2022-08-19T03:37:12;5;4;
60816;PMS5003;51921;51.518;-3.188;2022-08-19T03:39:38;4;3;
60816;PMS5003;51921;51.518;-3.188;2022-08-19T03:42:03;5;5;
60816;PMS5003;51921;51.518;-3.188;2022-08-19T03:44:29;4;4;
60816;PMS5003;51921;51.518;-3.188;2022-08-19T03:46:54;6;5;
60816;PMS5003;51921;51.518;-3.188;2022-08-19T03:49:19;5;5;
60816;PMS5003;51921;51.518;-3.188;2022-08-19T03:51:45;7;6;
60816;PMS5003;51921;51.518;-3.188;2022-08-19T03:54:11;4;4;
60816;PMS5003;51921;51.518;-3.188;2022-08-19T03:56:36;6;6;
60816;PMS5003;51921;51.518;-3.188;2022-08-19T03:59:00;4;3;
60816;PMS5003;51921;51.518;-3.188;2022-08-19T04:01:27;4;4;
60816;PMS5003;51921;51.518;-3.188;2022-08-19T04:03:51;6;6;
60816;PMS5003;51921;51.518;-3.188;2022-08-19T04:06:17;4;4;
60816;PMS5003;51921;51.518;-3.188;2022-08-19T04:08:42;6;5;
60816;PMS5003;51921;51.518;-3.188;2022-08-19T04:11:08;5;4;
60816;PMS5003;51921;51.518;-3.188;2022-08-19T04:13:33;6;6;
60816;PMS5003;51921;51.518;-3.188;2022-08-19T04:15:58;6;6;
60816;PMS5003;51921;51.518;-3.188;2022-08-19T04:18:24;5;5;
60816;PMS5003;51921;51.518;-3.188;2022-08-19T04:20:49;8;7;
60816;PMS5003;51921;51.518;-3.188;2022-08-19T04:23:14;7;5;
60816;PMS5003;51921;51.518;-3.188;2022-08-19T04:25:41;5;5;
60816;PMS5003;51921;51.518;-3.188;2022-08-19T04:28:05;8;7;
60816;PMS5003;51921;51.518;-3.188;2022-08-19T04:30:30;6;4;
60816;PMS5003;51921;51.518;-3.188;2022-08-19T04:32:56;4;4;
60816;PMS5003;51921;51.518;-3.188;2022-08-19T04:35:21;5;5;
60816;PMS5003;51921;51.518;-3.188;2022-08-19T04:37:47;7;6;
60816;PMS5003;51921;51.518;-3.188;2022-08-19T04:40:12;8;7;
60816;PMS5003;51921;51.518;-3.188;2022-08-19T04:42:37;5;4;
60816;PMS5003;51921;51.518;-3.188;2022-08-19T04:45:03;5;5;
60816;PMS5003;51921;51.518;-3.188;2022-08-19T04:47:28;6;6;
60816;PMS5003;51921;51.518;-3.188;2022-08-19T04:49:54;5;4;
60816;PMS5003;51921;51.518;-3.188;2022-08-19T04:52:19;4;4;
60816;PMS5003;51921;51.518;-3.188;2022-08-19T04:54:45;6;6;
60816;PMS5003;51921;51.518;-3.188;2022-08-19T04:57:10;5;5;
60816;PMS5003;51921;51.518;-3.188;2022-08-19T04:59:35;5;5;
60816;PMS5003;51921;51.518;-3.188;2022-08-19T05:02:00;7;6;
60816;PMS5003;51921;51.518;-3.188;2022-08-19T05:04:26;5;5;
60816;PMS5003;51921;51.518;-3.188;2022-08-19T05:06:51;5;5;
60816;PMS5003;51921;51.518;-3.188;2022-08-19T05:09:17;6;6;
60816;PMS5003;51921;51.518;-3.188;2022-08-19T05:11:42;4;4;
60816;PMS5003;51921;51.518;-3.188;2022-08-19T05:14:08;3;3;
60816;PMS5003;51921;51.518;-3.188;2022-08-19T05:16:33;3;3;
60816;PMS5003;51921;51.518;-3.188;2022-08-19T05:18:58;5;5;
60816;PMS5003;51921;51.518;-3.188;2022-08-19T05:21:24;6;4;
60816;PMS5003;51921;51.518;-3.188;2022-08-19T05:23:49;6;6;
60816;PMS5003;51921;51.518;-3.188;2022-08-19T05:26:14;5;5;
60816;PMS5003;51921;51.518;-3.188;2022-08-19T05:28:40;3;3;
60816;PMS5003;51921;51.518;-3.188;2022-08-19T05:31:05;4;3;
60816;PMS5003;51921;51.518;-3.188;2022-08-19T05:33:31;4;4;
60816;PMS5003;51921;51.518;-3.188;2022-08-19T05:35:56;5;4;
60816;PMS5003;51921;51.518;-3.188;2022-08-19T05:38:21;3;3;
60816;PMS5003;51921;51.518;-3.188;2022-08-19T05:40:47;6;5;
60816;PMS5003;51921;51.518;-3.188;2022-08-19T05:43:12;4;4;
60816;PMS5003;51921;51.518;-3.188;2022-08-19T05:45:38;4;4;
60816;PMS5003;51921;51.518;-3.188;2022-08-19T05:48:03;5;4;
60816;PMS5003;51921;51.518;-3.188;2022-08-19T05:50:28;4;4;
60816;PMS5003;51921;51.518;-3.188;2022-08-19T05:52:54;5;5;
60816;PMS5003;51921;51.518;-3.188;2022-08-19T05:55:19;5;4;
60816;PMS5003;51921;51.518;-3.188;2022-08-19T05:57:44;4;4;
60816;PMS5003;51921;51.518;-3.188;2022-08-19T06:00:10;4;4;
60816;PMS5003;51921;51.518;-3.188;2022-08-19T06:02:35;7;6;
60816;PMS5003;51921;51.518;-3.188;2022-08-19T06:05:01;6;5;
60816;PMS5003;51921;51.518;-3.188;2022-08-19T06:07:26;7;7;
60816;PMS5003;51921;51.518;-3.188;2022-08-19T06:09:52;6;6;
60816;PMS5003;51921;51.518;-3.188;2022-08-19T06:12:17;7;6;
60816;PMS5003;51921;51.518;-3.188;2022-08-19T06:14:42;4;4;
60816;PMS5003;51921;51.518;-3.188;2022-08-19T06:17:08;5;4;
60816;PMS5003;51921;51.518;-3.188;2022-08-19T06:19:33;5;4;
60816;PMS5003;51921;51.518;-3.188;2022-08-19T06:21:59;6;6;
60816;PMS5003;51921;51.518;-3.188;2022-08-19T06:24:24;8;7;
60816;PMS5003;51921;51.518;-3.188;2022-08-19T06:26:50;6;5;
60816;PMS5003;51921;51.518;-3.188;2022-08-19T06:29:15;6;5;
60816;PMS5003;51921;51.518;-3.188;2022-08-19T06:31:41;5;5;
60816;PMS5003;51921;51.518;-3.188;2022-08-19T06:34:06;7;4;
60816;PMS5003;51921;51.518;-3.188;2022-08-19T06:36:32;4;4;
60816;PMS5003;51921;51.518;-3.188;2022-08-19T06:38:56;4;4;
60816;PMS5003;51921;51.518;-3.188;2022-08-19T06:41:21;5;5;
60816;PMS5003;51921;51.518;-3.188;2022-08-19T06:43:47;5;4;
60816;PMS5003;51921;51.518;-3.188;2022-08-19T06:46:13;4;4;
60816;PMS5003;51921;51.518;-3.188;2022-08-19T06:48:38;4;4;
60816;PMS5003;51921;51.518;-3.188;2022-08-19T06:51:03;4;4;
60816;PMS5003;51921;51.518;-3.188;2022-08-19T06:53:29;6;4;
60816;PMS5003;51921;51.518;-3.188;2022-08-19T06:55:54;6;6;
60816;PMS5003;51921;51.518;-3.188;2022-08-19T06:58:19;6;5;
60816;PMS5003;51921;51.518;-3.188;2022-08-19T07:00:45;3;2;
60816;PMS5003;51921;51.518;-3.188;2022-08-19T07:03:10;5;5;
60816;PMS5003;51921;51.518;-3.188;2022-08-19T07:05:39;4;4;
60816;PMS5003;51921;51.518;-3.188;2022-08-19T07:08:01;4;4;
60816;PMS5003;51921;51.518;-3.188;2022-08-19T07:10:26;4;4;
60816;PMS5003;51921;51.518;-3.188;2022-08-19T07:12:52;3;3;
60816;PMS5003;51921;51.518;-3.188;2022-08-19T07:15:17;5;5;
60816;PMS5003;51921;51.518;-3.188;2022-08-19T07:17:43;2;2;
60816;PMS5003;51921;51.518;-3.188;2022-08-19T07:20:08;5;5;
60816;PMS5003;51921;51.518;-3.188;2022-08-19T07:22:34;5;4;
60816;PMS5003;51921;51.518;-3.188;2022-08-19T07:24:59;4;4;
60816;PMS5003;51921;51.518;-3.188;2022-08-19T07:27:24;5;4;
60816;PMS5003;51921;51.518;-3.188;2022-08-19T07:29:50;4;3;
60816;PMS5003;51921;51.518;-3.188;2022-08-19T07:32:15;5;4;
60816;PMS5003;51921;51.518;-3.188;2022-08-19T07:34:40;5;4;
60816;PMS5003;51921;51.518;-3.188;2022-08-19T07:37:06;5;5;
60816;PMS5003;51921;51.518;-3.188;2022-08-19T07:39:32;3;2;
60816;PMS5003;51921;51.518;-3.188;2022-08-19T07:41:57;3;3;
60816;PMS5003;51921;51.518;-3.188;2022-08-19T07:44:22;4;4;
60816;PMS5003;51921;51.518;-3.188;2022-08-19T07:46:53;3;2;
60816;PMS5003;51921;51.518;-3.188;2022-08-19T07:49:12;3;3;
60816;PMS5003;51921;51.518;-3.188;2022-08-19T07:51:38;1;1;
60816;PMS5003;51921;51.518;-3.188;2022-08-19T07:54:03;4;2;
60816;PMS5003;51921;51.518;-3.188;2022-08-19T07:56:28;3;3;
60816;PMS5003;51921;51.518;-3.188;2022-08-19T07:58:54;3;2;
60816;PMS5003;51921;51.518;-3.188;2022-08-19T08:01:20;1;0;
60816;PMS5003;51921;51.518;-3.188;2022-08-19T08:03:44;3;2;
60816;PMS5003;51921;51.518;-3.188;2022-08-19T08:06:09;2;2;
60816;PMS5003;51921;51.518;-3.188;2022-08-19T08:08:35;2;2;
60816;PMS5003;51921;51.518;-3.188;2022-08-19T08:11:00;3;3;
60816;PMS5003;51921;51.518;-3.188;2022-08-19T08:13:25;2;2;
60816;PMS5003;51921;51.518;-3.188;2022-08-19T08:15:50;3;3;
60816;PMS5003;51921;51.518;-3.188;2022-08-19T08:18:16;2;2;
60816;PMS5003;51921;51.518;-3.188;2022-08-19T08:20:41;3;3;
60816;PMS5003;51921;51.518;-3.188;2022-08-19T08:23:06;3;2;
60816;PMS5003;51921;51.518;-3.188;2022-08-19T08:25:32;3;3;
60816;PMS5003;51921;51.518;-3.188;2022-08-19T08:27:57;2;1;
60816;PMS5003;51921;51.518;-3.188;2022-08-19T08:30:23;2;1;
60816;PMS5003;51921;51.518;-3.188;2022-08-19T08:32:48;3;1;
60816;PMS5003;51921;51.518;-3.188;2022-08-19T08:35:14;3;3;
60816;PMS5003;51921;51.518;-3.188;2022-08-19T08:37:38;3;3;
60816;PMS5003;51921;51.518;-3.188;2022-08-19T08:40:04;4;3;
60816;PMS5003;51921;51.518;-3.188;2022-08-19T08:42:30;5;4;
60816;PMS5003;51921;51.518;-3.188;2022-08-19T08:44:56;8;6;
60816;PMS5003;51921;51.518;-3.188;2022-08-19T08:47:20;7;3;
60816;PMS5003;51921;51.518;-3.188;2022-08-19T08:49:45;5;5;
60816;PMS5003;51921;51.518;-3.188;2022-08-19T08:52:11;7;6;
60816;PMS5003;51921;51.518;-3.188;2022-08-19T08:54:37;5;4;
60816;PMS5003;51921;51.518;-3.188;2022-08-19T08:57:01;7;7;
60816;PMS5003;51921;51.518;-3.188;2022-08-19T08:59:26;8;6;
60816;PMS5003;51921;51.518;-3.188;2022-08-19T09:01:51;7;6;
60816;PMS5003;51921;51.518;-3.188;2022-08-19T09:04:16;9;7;
60816;PMS5003;51921;51.518;-3.188;2022-08-19T09:06:44;9;8;
60816;PMS5003;51921;51.518;-3.188;2022-08-19T09:09:12;5;5;
60816;PMS5003;51921;51.518;-3.188;2022-08-19T09:11:36;7;6;
60816;PMS5003;51921;51.518;-3.188;2022-08-19T09:14:02;8;8;
60816;PMS5003;51921;51.518;-3.188;2022-08-19T09:16:23;10;10;
60816;PMS5003;51921;51.518;-3.188;2022-08-19T09:18:50;8;7;
60816;PMS5003;51921;51.518;-3.188;2022-08-19T09:21:14;8;8;
60816;PMS5003;51921;51.518;-3.188;2022-08-19T09:23:39;8;7;
60816;PMS5003;51921;51.518;-3.188;2022-08-19T09:26:08;7;6;
60816;PMS5003;51921;51.518;-3.188;2022-08-19T09:28:30;10;7;
60816;PMS5003;51921;51.518;-3.188;2022-08-19T09:30:55;7;7;
60816;PMS5003;51921;51.518;-3.188;2022-08-19T09:33:21;7;4;
60816;PMS5003;51921;51.518;-3.188;2022-08-19T09:35:46;9;6;
60816;PMS5003;51921;51.518;-3.188;2022-08-19T09:38:11;7;6;
60816;PMS5003;51921;51.518;-3.188;2022-08-19T09:40:37;6;6;
60816;PMS5003;51921;51.518;-3.188;2022-08-19T09:43:02;7;7;
60816;PMS5003;51921;51.518;-3.188;2022-08-19T09:45:28;9;7;
60816;PMS5003;51921;51.518;-3.188;2022-08-19T09:47:53;3;3;
60816;PMS5003;51921;51.518;-3.188;2022-08-19T09:50:18;9;6;
60816;PMS5003;51921;51.518;-3.188;2022-08-19T09:52:43;7;6;
60816;PMS5003;51921;51.518;-3.188;2022-08-19T09:55:09;3;2;
60816;PMS5003;51921;51.518;-3.188;2022-08-19T09:57:34;8;7;
60816;PMS5003;51921;51.518;-3.188;2022-08-19T09:59:59;6;6;
60816;PMS5003;51921;51.518;-3.188;2022-08-19T10:02:25;8;7;
60816;PMS5003;51921;51.518;-3.188;2022-08-19T10:04:50;10;8;
60816;PMS5003;51921;51.518;-3.188;2022-08-19T10:07:15;8;7;
60816;PMS5003;51921;51.518;-3.188;2022-08-19T10:09:41;6;5;
60816;PMS5003;51921;51.518;-3.188;2022-08-19T10:12:06;7;5;
60816;PMS5003;51921;51.518;-3.188;2022-08-19T10:14:31;8;7;
60816;PMS5003;51921;51.518;-3.188;2022-08-19T10:16:56;6;6;
60816;PMS5003;51921;51.518;-3.188;2022-08-19T10:19:22;7;5;
60816;PMS5003;51921;51.518;-3.188;2022-08-19T10:21:47;6;5;
60816;PMS5003;51921;51.518;-3.188;2022-08-19T10:24:12;3;2;
60816;PMS5003;51921;51.518;-3.188;2022-08-19T10:26:38;5;4;
60816;PMS5003;51921;51.518;-3.188;2022-08-19T10:29:03;8;6;
60816;PMS5003;51921;51.518;-3.188;2022-08-19T10:31:29;5;4;
60816;PMS5003;51921;51.518;-3.188;2022-08-19T10:33:53;7;5;
60816;PMS5003;51921;51.518;-3.188;2022-08-19T10:36:19;5;5;
60816;PMS5003;51921;51.518;-3.188;2022-08-19T10:38:44;6;5;
60816;PMS5003;51921;51.518;-3.188;2022-08-19T10:41:10;3;3;
60816;PMS5003;51921;51.518;-3.188;2022-08-19T10:43:35;5;5;
60816;PMS5003;51921;51.518;-3.188;2022-08-19T10:46:00;6;5;
60816;PMS5003;51921;51.518;-3.188;2022-08-19T10:48:25;4;3;
60816;PMS5003;51921;51.518;-3.188;2022-08-19T10:50:51;5;3;
60816;PMS5003;51921;51.518;-3.188;2022-08-19T10:53:16;7;5;
60816;PMS5003;51921;51.518;-3.188;2022-08-19T10:55:44;7;5;
60816;PMS5003;51921;51.518;-3.188;2022-08-19T10:58:11;5;4;
60816;PMS5003;51921;51.518;-3.188;2022-08-19T11:00:32;3;3;
60816;PMS5003;51921;51.518;-3.188;2022-08-19T11:02:57;5;5;
60816;PMS5003;51921;51.518;-3.188;2022-08-19T11:05:23;5;4;
60816;PMS5003;51921;51.518;-3.188;2022-08-19T11:07:48;7;6;
60816;PMS5003;51921;51.518;-3.188;2022-08-19T11:10:14;6;5;
60816;PMS5003;51921;51.518;-3.188;2022-08-19T11:12:39;4;4;
60816;PMS5003;51921;51.518;-3.188;2022-08-19T11:15:05;5;5;
60816;PMS5003;51921;51.518;-3.188;2022-08-19T11:17:30;7;4;
60816;PMS5003;51921;51.518;-3.188;2022-08-19T11:19:55;5;5;
60816;PMS5003;51921;51.518;-3.188;2022-08-19T11:22:20;6;4;
60816;PMS5003;51921;51.518;-3.188;2022-08-19T11:24:46;5;4;
60816;PMS5003;51921;51.518;-3.188;2022-08-19T11:27:11;5;4;
60816;PMS5003;51921;51.518;-3.188;2022-08-19T11:29:37;4;2;
60816;PMS5003;51921;51.518;-3.188;2022-08-19T11:32:03;3;3;
60816;PMS5003;51921;51.518;-3.188;2022-08-19T11:34:27;3;3;
60816;PMS5003;51921;51.518;-3.188;2022-08-19T11:36:52;3;3;
60816;PMS5003;51921;51.518;-3.188;2022-08-19T11:39:19;4;4;
60816;PMS5003;51921;51.518;-3.188;2022-08-19T11:41:43;3;1;
60816;PMS5003;51921;51.518;-3.188;2022-08-19T11:44:08;2;2;
60816;PMS5003;51921;51.518;-3.188;2022-08-19T11:46:34;4;4;
60816;PMS5003;51921;51.518;-3.188;2022-08-19T11:48:59;2;2;
60816;PMS5003;51921;51.518;-3.188;2022-08-19T11:51:24;3;3;
60816;PMS5003;51921;51.518;-3.188;2022-08-19T11:53:50;4;3;
60816;PMS5003;51921;51.518;-3.188;2022-08-19T11:56:15;4;1;
60816;PMS5003;51921;51.518;-3.188;2022-08-19T11:58:40;4;2;
60816;PMS5003;51921;51.518;-3.188;2022-08-19T12:01:06;2;1;
60816;PMS5003;51921;51.518;-3.188;2022-08-19T12:03:31;3;3;
60816;PMS5003;51921;51.518;-3.188;2022-08-19T12:05:56;2;1;
60816;PMS5003;51921;51.518;-3.188;2022-08-19T12:08:22;3;3;
60816;PMS5003;51921;51.518;-3.188;2022-08-19T12:10:47;4;3;
60816;PMS5003;51921;51.518;-3.188;2022-08-19T12:13:13;3;3;
60816;PMS5003;51921;51.518;-3.188;2022-08-19T12:15:38;1;1;
60816;PMS5003;51921;51.518;-3.188;2022-08-19T12:18:03;2;2;
60816;PMS5003;51921;51.518;-3.188;2022-08-19T12:20:28;1;1;
60816;PMS5003;51921;51.518;-3.188;2022-08-19T12:22:54;2;2;
60816;PMS5003;51921;51.518;-3.188;2022-08-19T12:25:19;2;2;
60816;PMS5003;51921;51.518;-3.188;2022-08-19T12:27:45;2;1;
60816;PMS5003;51921;51.518;-3.188;2022-08-19T12:30:11;3;2;
60816;PMS5003;51921;51.518;-3.188;2022-08-19T12:32:35;4;3;
60816;PMS5003;51921;51.518;-3.188;2022-08-19T12:35:01;2;1;
60816;PMS5003;51921;51.518;-3.188;2022-08-19T12:37:26;2;2;
60816;PMS5003;51921;51.518;-3.188;2022-08-19T12:39:51;4;2;
60816;PMS5003;51921;51.518;-3.188;2022-08-19T12:42:17;1;1;
60816;PMS5003;51921;51.518;-3.188;2022-08-19T12:44:42;1;1;
60816;PMS5003;51921;51.518;-3.188;2022-08-19T12:47:08;1;1;
60816;PMS5003;51921;51.518;-3.188;2022-08-19T12:49:33;4;2;
60816;PMS5003;51921;51.518;-3.188;2022-08-19T12:51:58;2;1;
60816;PMS5003;51921;51.518;-3.188;2022-08-19T12:54:23;3;2;
60816;PMS5003;51921;51.518;-3.188;2022-08-19T12:56:49;3;3;
60816;PMS5003;51921;51.518;-3.188;2022-08-19T12:59:14;2;2;
60816;PMS5003;51921;51.518;-3.188;2022-08-19T13:01:39;3;3;
60816;PMS5003;51921;51.518;-3.188;2022-08-19T13:04:05;0;0;
60816;PMS5003;51921;51.518;-3.188;2022-08-19T13:06:30;1;1;
60816;PMS5003;51921;51.518;-3.188;2022-08-19T13:08:56;2;2;
60816;PMS5003;51921;51.518;-3.188;2022-08-19T13:11:21;1;1;
60816;PMS5003;51921;51.518;-3.188;2022-08-19T13:13:48;2;1;
60816;PMS5003;51921;51.518;-3.188;2022-08-19T13:16:12;1;1;
60816;PMS5003;51921;51.518;-3.188;2022-08-19T13:18:38;2;2;
60816;PMS5003;51921;51.518;-3.188;2022-08-19T13:21:03;0;0;
60816;PMS5003;51921;51.518;-3.188;2022-08-19T13:23:28;2;1;
60816;PMS5003;51921;51.518;-3.188;2022-08-19T13:25:57;2;2;
60816;PMS5003;51921;51.518;-3.188;2022-08-19T13:28:18;0;0;
60816;PMS5003;51921;51.518;-3.188;2022-08-19T13:30:46;3;1;
60816;PMS5003;51921;51.518;-3.188;2022-08-19T13:33:09;1;1;
60816;PMS5003;51921;51.518;-3.188;2022-08-19T13:35:34;0;0;
60816;PMS5003;51921;51.518;-3.188;2022-08-19T13:38:00;2;2;
60816;PMS5003;51921;51.518;-3.188;2022-08-19T13:40:25;0;0;
60816;PMS5003;51921;51.518;-3.188;2022-08-19T13:42:51;1;1;
60816;PMS5003;51921;51.518;-3.188;2022-08-19T13:45:16;1;1;
60816;PMS5003;51921;51.518;-3.188;2022-08-19T13:47:41;1;1;
60816;PMS5003;51921;51.518;-3.188;2022-08-19T13:50:07;0;0;
60816;PMS5003;51921;51.518;-3.188;2022-08-19T13:52:32;1;1;
60816;PMS5003;51921;51.518;-3.188;2022-08-19T13:54:57;1;1;
60816;PMS5003;51921;51.518;-3.188;2022-08-19T13:57:23;0;0;
60816;PMS5003;51921;51.518;-3.188;2022-08-19T13:59:48;0;0;
60816;PMS5003;51921;51.518;-3.188;2022-08-19T14:02:13;1;1;
60816;PMS5003;51921;51.518;-3.188;2022-08-19T14:04:39;2;2;
60816;PMS5003;51921;51.518;-3.188;2022-08-19T14:07:04;3;1;
60816;PMS5003;51921;51.518;-3.188;2022-08-19T14:09:29;1;1;
60816;PMS5003;51921;51.518;-3.188;2022-08-19T14:11:55;0;0;
60816;PMS5003;51921;51.518;-3.188;2022-08-19T14:14:20;0;0;
60816;PMS5003;51921;51.518;-3.188;2022-08-19T14:16:45;1;1;
60816;PMS5003;51921;51.518;-3.188;2022-08-19T14:19:11;2;0;
60816;PMS5003;51921;51.518;-3.188;2022-08-19T14:21:36;1;1;
60816;PMS5003;51921;51.518;-3.188;2022-08-19T14:24:02;1;1;
60816;PMS5003;51921;51.518;-3.188;2022-08-19T14:26:27;1;0;
60816;PMS5003;51921;51.518;-3.188;2022-08-19T14:28:52;1;1;
60816;PMS5003;51921;51.518;-3.188;2022-08-19T14:31:18;0;0;
60816;PMS5003;51921;51.518;-3.188;2022-08-19T14:33:43;1;0;
60816;PMS5003;51921;51.518;-3.188;2022-08-19T14:36:09;1;1;
60816;PMS5003;51921;51.518;-3.188;2022-08-19T14:38:34;0;0;
60816;PMS5003;51921;51.518;-3.188;2022-08-19T14:41:05;2;1;
60816;PMS5003;51921;51.518;-3.188;2022-08-19T14:43:24;2;2;
60816;PMS5003;51921;51.518;-3.188;2022-08-19T14:45:50;0;0;
60816;PMS5003;51921;51.518;-3.188;2022-08-19T14:48:15;1;1;
60816;PMS5003;51921;51.518;-3.188;2022-08-19T14:50:40;3;1;
60816;PMS5003;51921;51.518;-3.188;2022-08-19T14:53:07;1;1;
60816;PMS5003;51921;51.518;-3.188;2022-08-19T14:55:31;1;1;
60816;PMS5003;51921;51.518;-3.188;2022-08-19T14:57:56;0;0;
60816;PMS5003;51921;51.518;-3.188;2022-08-19T15:00:22;2;2;
60816;PMS5003;51921;51.518;-3.188;2022-08-19T15:02:47;2;1;
60816;PMS5003;51921;51.518;-3.188;2022-08-19T15:05:12;0;0;
60816;PMS5003;51921;51.518;-3.188;2022-08-19T15:07:38;1;1;
60816;PMS5003;51921;51.518;-3.188;2022-08-19T15:10:04;2;2;
60816;PMS5003;51921;51.518;-3.188;2022-08-19T15:12:28;0;0;
60816;PMS5003;51921;51.518;-3.188;2022-08-19T15:14:54;1;1;
60816;PMS5003;51921;51.518;-3.188;2022-08-19T15:17:19;2;2;
60816;PMS5003;51921;51.518;-3.188;2022-08-19T15:19:45;1;1;
60816;PMS5003;51921;51.518;-3.188;2022-08-19T15:22:10;1;1;
60816;PMS5003;51921;51.518;-3.188;2022-08-19T15:24:35;0;0;
60816;PMS5003;51921;51.518;-3.188;2022-08-19T15:27:01;2;1;
60816;PMS5003;51921;51.518;-3.188;2022-08-19T15:29:26;1;1;
60816;PMS5003;51921;51.518;-3.188;2022-08-19T15:31:51;1;1;
60816;PMS5003;51921;51.518;-3.188;2022-08-19T15:34:17;1;1;
60816;PMS5003;51921;51.518;-3.188;2022-08-19T15:36:42;1;1;
60816;PMS5003;51921;51.518;-3.188;2022-08-19T15:39:08;2;1;
60816;PMS5003;51921;51.518;-3.188;2022-08-19T15:41:33;1;1;
60816;PMS5003;51921;51.518;-3.188;2022-08-19T15:43:59;2;2;
60816;PMS5003;51921;51.518;-3.188;2022-08-19T15:46:24;2;2;
60816;PMS5003;51921;51.518;-3.188;2022-08-19T15:48:49;0;0;
60816;PMS5003;51921;51.518;-3.188;2022-08-19T15:51:14;1;1;
60816;PMS5003;51921;51.518;-3.188;2022-08-19T15:53:39;0;0;
60816;PMS5003;51921;51.518;-3.188;2022-08-19T15:56:05;0;0;
60816;PMS5003;51921;51.518;-3.188;2022-08-19T15:58:30;2;0;
60816;PMS5003;51921;51.518;-3.188;2022-08-19T16:00:56;1;1;
60816;PMS5003;51921;51.518;-3.188;2022-08-19T16:03:21;1;1;
60816;PMS5003;51921;51.518;-3.188;2022-08-19T16:05:46;0;0;
60816;PMS5003;51921;51.518;-3.188;2022-08-19T16:08:12;3;1;
60816;PMS5003;51921;51.518;-3.188;2022-08-19T16:10:37;0;0;
60816;PMS5003;51921;51.518;-3.188;2022-08-19T16:13:03;1;1;
60816;PMS5003;51921;51.518;-3.188;2022-08-19T16:15:29;0;0;
60816;PMS5003;51921;51.518;-3.188;2022-08-19T16:17:53;1;1;
60816;PMS5003;51921;51.518;-3.188;2022-08-19T16:20:18;3;1;